createdAt,value
2022-09-28T00:02:26.785Z,98126.63
2022-09-28T00:04:53.754Z,98123.50
2022-09-28T00:07:20.627Z,98118.84
2022-09-28T00:09:47.528Z,98115.59
2022-09-28T00:12:14.720Z,98110.47
2022-09-28T00:14:43.310Z,98119.34
2022-09-28T00:17:12.251Z,98118.50
2022-09-28T00:19:40.240Z,98097.63
2022-09-28T00:22:07.267Z,98094.13
2022-09-28T00:24:34.272Z,98109.16
2022-09-28T00:27:02.906Z,98100.31
2022-09-28T00:29:34.899Z,98096.59
2022-09-28T00:32:04.826Z,98104.38
2022-09-28T00:34:38.514Z,98091.53
2022-09-28T00:37:06.594Z,98093.75
2022-09-28T00:39:34.439Z,98084.66
2022-09-28T00:42:02.307Z,98085.19
2022-09-28T00:44:37.427Z,98083.34
2022-09-28T00:47:10.367Z,98083.59
2022-09-28T00:49:45.647Z,98073.94
2022-09-28T00:52:16.249Z,98072.53
2022-09-28T00:54:46.351Z,98072.78
2022-09-28T00:57:14.064Z,98066.91
2022-09-28T00:59:41.844Z,98065.63
2022-09-28T01:02:10.715Z,98057.56
2022-09-28T01:04:38.941Z,98051.19
2022-09-28T01:07:09.024Z,98053.84
2022-09-28T01:09:39.059Z,98047.66
2022-09-28T01:12:06.407Z,98042.56
2022-09-28T01:14:33.390Z,98034.50
2022-09-28T01:17:09.738Z,98024.00
2022-09-28T01:20:07.270Z,98034.16
2022-09-28T01:23:13.292Z,98022.41
2022-09-28T01:26:00.340Z,98022.06
2022-09-28T01:28:31.204Z,98018.06
2022-09-28T01:31:03.323Z,98014.09
2022-09-28T01:34:10.468Z,98013.88
2022-09-28T01:36:43.348Z,98011.41
2022-09-28T01:39:14.828Z,98013.06
2022-09-28T01:41:44.502Z,98002.31
2022-09-28T01:44:15.268Z,98005.50
2022-09-28T01:46:44.959Z,98004.66
2022-09-28T01:49:31.203Z,97996.38
2022-09-28T01:52:02.996Z,97987.53
2022-09-28T01:54:47.532Z,97990.44
2022-09-28T01:57:22.358Z,97990.44
2022-09-28T02:00:10.817Z,97994.44
2022-09-28T02:02:54.090Z,97984.22
2022-09-28T02:05:36.167Z,97982.09
2022-09-28T02:08:25.550Z,97978.59
2022-09-28T02:11:00.771Z,97972.66
2022-09-28T02:13:37.884Z,97961.69
2022-09-28T02:16:28.096Z,97965.59
2022-09-28T02:18:55.228Z,97962.81
2022-09-28T02:21:32.903Z,97954.56
2022-09-28T02:24:07.071Z,97954.78
2022-09-28T02:26:41.242Z,97959.34
2022-09-28T02:29:08.427Z,97953.75
2022-09-28T02:31:36.132Z,97952.91
2022-09-28T02:34:03.853Z,97948.31
2022-09-28T02:36:31.389Z,97952.91
2022-09-28T02:38:58.591Z,97947.31
2022-09-28T02:41:44.101Z,97940.56
2022-09-28T02:44:36.031Z,97938.69
2022-09-28T02:47:33.383Z,97931.72
2022-09-28T02:50:19.428Z,97933.84
2022-09-28T02:53:15.172Z,97925.22
2022-09-28T02:56:00.323Z,97929.19
2022-09-28T02:58:44.351Z,97934.34
2022-09-28T03:01:27.441Z,97925.22
2022-09-28T03:04:11.571Z,97929.53
2022-09-28T03:06:47.657Z,97928.72
2022-09-28T03:09:23.147Z,97931.72
2022-09-28T03:12:02.007Z,97919.94
2022-09-28T03:14:29.290Z,97921.31
2022-09-28T03:16:57.717Z,97910.59
2022-09-28T03:19:29.586Z,97905.00
2022-09-28T03:21:56.587Z,97904.66
2022-09-28T03:24:23.780Z,97901.75
2022-09-28T03:26:51.104Z,97906.31
2022-09-28T03:29:20.341Z,97899.56
2022-09-28T03:31:52.324Z,97909.41
2022-09-28T03:34:23.403Z,97895.16
2022-09-28T03:36:52.540Z,97897.13
2022-09-28T03:39:19.708Z,97890.94
2022-09-28T03:41:46.605Z,97892.31
2022-09-28T03:44:13.979Z,97894.44
2022-09-28T03:46:41.351Z,97884.59
2022-09-28T03:49:10.322Z,97890.03
2022-09-28T03:51:37.253Z,97885.81
2022-09-28T03:54:04.538Z,97880.78
2022-09-28T03:56:31.749Z,97877.25
2022-09-28T03:58:58.730Z,97877.53
2022-09-28T04:01:26.629Z,97867.31
2022-09-28T04:03:55.974Z,97874.19
2022-09-28T04:06:24.547Z,97872.56
2022-09-28T04:08:56.596Z,97870.38
2022-09-28T04:11:24.324Z,97873.94
2022-09-28T04:13:51.373Z,97876.63
2022-09-28T04:16:19.183Z,97883.94
2022-09-28T04:19:05.984Z,97873.47
2022-09-28T04:21:38.614Z,97865.09
2022-09-28T04:24:11.451Z,97866.47
2022-09-28T04:26:38.453Z,97868.09
2022-09-28T04:29:18.767Z,97863.84
2022-09-28T04:31:54.515Z,97857.19
2022-09-28T04:34:35.149Z,97849.97
2022-09-28T04:37:05.755Z,97852.16
2022-09-28T04:39:32.706Z,97851.81
2022-09-28T04:42:10.458Z,97853.69
2022-09-28T04:44:38.931Z,97859.63
2022-09-28T04:47:10.301Z,97853.19
2022-09-28T04:49:55.793Z,97844.03
2022-09-28T04:52:30.703Z,97836.88
2022-09-28T04:54:57.703Z,97843.31
2022-09-28T04:57:25.868Z,97841.88
2022-09-28T04:59:52.771Z,97846.97
2022-09-28T05:02:20.595Z,97845.66
2022-09-28T05:05:06.424Z,97836.88
2022-09-28T05:07:37.151Z,97834.25
2022-09-28T05:10:06.568Z,97825.13
2022-09-28T05:12:34.127Z,97830.44
2022-09-28T05:15:01.145Z,97828.59
2022-09-28T05:17:31.089Z,97829.91
2022-09-28T05:20:10.709Z,97828.81
2022-09-28T05:22:38.009Z,97821.06
2022-09-28T05:25:09.079Z,97827.56
2022-09-28T05:27:48.460Z,97826.50
2022-09-28T05:30:35.450Z,97826.78
2022-09-28T05:33:29.265Z,97818.47
2022-09-28T05:36:11.535Z,97822.50
2022-09-28T05:38:39.132Z,97824.22
2022-09-28T05:41:06.939Z,97816.47
2022-09-28T05:43:34.757Z,97801.50
2022-09-28T05:46:05.408Z,97805.28
2022-09-28T05:48:36.633Z,97803.72
2022-09-28T05:51:04.149Z,97797.81
2022-09-28T05:53:31.303Z,97804.88
2022-09-28T05:55:59.583Z,97799.22
2022-09-28T05:58:28.651Z,97805.63
2022-09-28T06:00:57.129Z,97806.97
2022-09-28T06:03:25.032Z,97799.28
2022-09-28T06:05:52.123Z,97795.34
2022-09-28T06:08:19.473Z,97789.78
2022-09-28T06:10:59.832Z,97794.44
2022-09-28T06:13:27.995Z,97792.03
2022-09-28T06:15:55.115Z,97797.78
2022-09-28T06:18:22.153Z,97796.16
2022-09-28T06:21:15.193Z,97794.59
2022-09-28T06:23:49.025Z,97796.25
2022-09-28T06:26:18.913Z,97791.44
2022-09-28T06:28:50.157Z,97790.88
2022-09-28T06:31:18.905Z,97798.06
2022-09-28T06:33:48.969Z,97798.81
2022-09-28T06:36:18.950Z,97795.53
2022-09-28T06:38:47.531Z,97800.38
2022-09-28T06:41:15.306Z,97796.94
2022-09-28T06:43:46.212Z,97790.81
2022-09-28T06:46:16.784Z,97800.28
2022-09-28T06:48:50.260Z,97791.22
2022-09-28T06:51:36.947Z,97795.84
2022-09-28T06:54:19.802Z,97796.31
2022-09-28T06:56:58.114Z,97793.59
2022-09-28T06:59:27.228Z,97800.66
2022-09-28T07:01:54.730Z,97791.88
2022-09-28T07:04:43.520Z,97779.81
2022-09-28T07:07:31.747Z,97778.78
2022-09-28T07:10:12.030Z,97779.03
2022-09-28T07:13:02.686Z,97772.84
2022-09-28T07:15:43.575Z,97777.22
2022-09-28T07:18:13.582Z,97779.56
2022-09-28T07:20:52.622Z,97786.53
2022-09-28T07:23:21.172Z,97786.28
2022-09-28T07:26:24.223Z,97782.84
2022-09-28T07:29:11.135Z,97787.66
2022-09-28T07:31:58.984Z,97785.84
2022-09-28T07:34:29.545Z,97795.03
2022-09-28T07:37:20.214Z,97790.69
2022-09-28T07:40:07.616Z,97785.28
2022-09-28T07:42:38.432Z,97783.66
2022-09-28T07:45:07.067Z,97788.63
2022-09-28T07:47:35.412Z,97787.13
2022-09-28T07:50:28.857Z,97779.91
2022-09-28T07:53:01.110Z,97772.94
2022-09-28T07:55:40.167Z,97775.09
2022-09-28T07:58:07.568Z,97779.31
2022-09-28T08:00:51.127Z,97767.94
2022-09-28T08:03:19.350Z,97770.94
2022-09-28T08:05:47.559Z,97768.28
2022-09-28T08:08:15.195Z,97764.06
2022-09-28T08:10:46.949Z,97765.94
2022-09-28T08:13:45.839Z,97754.69
2022-09-28T08:16:20.474Z,97758.25
2022-09-28T08:18:54.670Z,97763.13
2022-09-28T08:21:41.950Z,97770.97
2022-09-28T08:24:09.318Z,97772.34
2022-09-28T08:26:36.390Z,97776.41
2022-09-28T08:29:03.607Z,97771.81
2022-09-28T08:31:52.749Z,97774.22
2022-09-28T08:34:39.460Z,97774.22
2022-09-28T08:37:20.442Z,97763.19
2022-09-28T08:40:20.431Z,97766.19
2022-09-28T08:43:23.211Z,97751.44
2022-09-28T08:46:26.958Z,97751.94
2022-09-28T08:49:26.523Z,97757.28
2022-09-28T08:52:23.692Z,97758.28
2022-09-28T08:55:31.432Z,97755.56
2022-09-28T08:58:09.167Z,97757.22
2022-09-28T09:00:43.194Z,97757.28
2022-09-28T09:03:13.954Z,97759.72
2022-09-28T09:05:52.213Z,97764.84
2022-09-28T09:08:49.563Z,97770.22
2022-09-28T09:11:45.796Z,97765.41
2022-09-28T09:14:35.069Z,97770.53
2022-09-28T09:17:33.548Z,97766.00
2022-09-28T09:20:57.356Z,97765.72
2022-09-28T09:23:39.899Z,97767.91
2022-09-28T09:26:25.380Z,97767.59
2022-09-28T09:29:30.154Z,97770.53
2022-09-28T09:32:17.384Z,97772.97
2022-09-28T09:35:13.033Z,97776.19
2022-09-28T09:38:09.944Z,97774.53
2022-09-28T09:41:16.801Z,97779.63
2022-09-28T09:44:06.083Z,97775.06
2022-09-28T09:47:07.943Z,97772.66
2022-09-28T09:49:50.986Z,97776.91
2022-09-28T09:52:30.271Z,97772.56
2022-09-28T09:55:04.427Z,97774.22
2022-09-28T09:57:58.060Z,97785.00
2022-09-28T10:00:35.176Z,97781.25
2022-09-28T10:03:21.650Z,97786.41
2022-09-28T10:05:55.048Z,97775.63
2022-09-28T10:08:23.946Z,97786.91
2022-09-28T10:11:03.084Z,97783.91
2022-09-28T10:13:33.051Z,97778.81
2022-09-28T10:16:03.327Z,97780.41
2022-09-28T10:18:36.619Z,97778.47
2022-09-28T10:21:23.289Z,97779.56
2022-09-28T10:24:28.697Z,97786.50
2022-09-28T10:26:59.903Z,97783.03
2022-09-28T10:29:27.172Z,97768.50
2022-09-28T10:31:54.760Z,97775.00
2022-09-28T10:34:30.098Z,97779.84
2022-09-28T10:37:07.558Z,97777.69
2022-09-28T10:39:56.163Z,97779.84
2022-09-28T10:42:31.178Z,97778.78
2022-09-28T10:45:05.350Z,97772.88
2022-09-28T10:47:35.666Z,97774.22
2022-09-28T10:50:21.021Z,97775.56
2022-09-28T10:52:49.356Z,97768.03
2022-09-28T10:56:06.370Z,97769.91
2022-09-28T10:58:42.113Z,97771.22
2022-09-28T11:01:23.206Z,97775.03
2022-09-28T11:04:08.495Z,97774.22
2022-09-28T11:06:41.537Z,97764.78
2022-09-28T11:09:31.281Z,97773.47
2022-09-28T11:12:06.230Z,97777.78
2022-09-28T11:14:42.505Z,97772.97
2022-09-28T11:17:27.736Z,97781.59
2022-09-28T11:19:56.820Z,97786.97
2022-09-28T11:22:37.370Z,97789.66
2022-09-28T11:25:22.495Z,97795.06
2022-09-28T11:27:52.423Z,97789.38
2022-09-28T11:30:25.104Z,97792.91
2022-09-28T11:33:20.335Z,97789.63
2022-09-28T11:36:13.489Z,97800.94
2022-09-28T11:39:02.785Z,97800.41
2022-09-28T11:41:54.666Z,97803.34
2022-09-28T11:44:38.706Z,97796.38
2022-09-28T11:47:37.570Z,97793.94
2022-09-28T11:50:23.675Z,97797.41
2022-09-28T11:53:22.415Z,97795.81
2022-09-28T11:56:08.508Z,97795.25
2022-09-28T11:58:48.870Z,97800.91
2022-09-28T12:01:19.598Z,97803.06
2022-09-28T12:04:16.861Z,97810.03
2022-09-28T12:07:26.140Z,97809.00
2022-09-28T12:10:10.508Z,97803.84
2022-09-28T12:12:45.871Z,97806.22
2022-09-28T12:15:20.429Z,97807.06
2022-09-28T12:17:54.911Z,97801.16
2022-09-28T12:20:28.928Z,97806.31
2022-09-28T12:23:17.634Z,97808.47
2022-09-28T12:25:48.525Z,97805.47
2022-09-28T12:28:33.512Z,97804.13
2022-09-28T12:31:15.444Z,97815.16
2022-09-28T12:33:46.873Z,97807.09
2022-09-28T12:36:30.304Z,97804.41
2022-09-28T12:39:17.502Z,97804.09
2022-09-28T12:41:59.176Z,97803.03
2022-09-28T12:44:58.576Z,97798.16
2022-09-28T12:47:32.232Z,97803.53
2022-09-28T12:53:15.034Z,97802.75
2022-09-28T12:55:56.671Z,97798.72
2022-09-28T12:58:50.864Z,97795.00
2022-09-28T13:01:24.212Z,97800.94
2022-09-28T13:04:00.381Z,97796.59
2022-09-28T13:06:30.367Z,97813.28
2022-09-28T13:09:25.006Z,97802.50
2022-09-28T13:12:03.993Z,97797.38
2022-09-28T13:14:33.908Z,97800.84
2022-09-28T13:17:27.776Z,97802.50
2022-09-28T13:19:58.589Z,97802.50
2022-09-28T13:22:30.511Z,97796.31
2022-09-28T13:25:04.442Z,97794.13
2022-09-28T13:27:48.953Z,97791.72
2022-09-28T13:30:19.529Z,97794.97
2022-09-28T13:32:47.715Z,97794.97
2022-09-28T13:35:19.492Z,97800.06
2022-09-28T13:37:49.395Z,97801.94
2022-09-28T13:40:16.356Z,97800.84
2022-09-28T13:42:46.304Z,97786.88
2022-09-28T13:45:22.357Z,97792.75
2022-09-28T13:47:58.901Z,97797.59
2022-09-28T13:50:50.740Z,97803.22
2022-09-28T13:53:24.800Z,97798.63
2022-09-28T13:56:03.550Z,97794.06
2022-09-28T13:58:52.142Z,97802.41
2022-09-28T14:01:22.938Z,97800.78
2022-09-28T14:03:56.034Z,97812.09
2022-09-28T14:06:27.188Z,97820.19
2022-09-28T14:09:20.157Z,97817.50
2022-09-28T14:12:01.345Z,97809.16
2022-09-28T14:14:49.247Z,97810.75
2022-09-28T14:17:20.032Z,97820.69
2022-09-28T14:20:11.270Z,97817.75
2022-09-28T14:22:50.620Z,97817.44
2022-09-28T14:25:23.852Z,97820.94
2022-09-28T14:28:01.878Z,97817.44
2022-09-28T14:30:41.757Z,97829.84
2022-09-28T14:33:20.848Z,97835.19
2022-09-28T14:35:49.875Z,97842.69
2022-09-28T14:38:44.161Z,97847.47
2022-09-28T14:41:27.750Z,97854.19
2022-09-28T14:44:08.224Z,97858.47
2022-09-28T14:46:37.734Z,97861.16
2022-09-28T14:49:21.936Z,97863.84
2022-09-28T14:51:48.765Z,97866.00
2022-09-28T14:54:20.299Z,97872.69
2022-09-28T14:56:54.072Z,97875.09
2022-09-28T14:59:26.176Z,97869.69
2022-09-28T15:02:23.848Z,97874.84
2022-09-28T15:05:17.189Z,97871.63
2022-09-28T15:07:51.851Z,97883.22
2022-09-28T15:10:31.597Z,97893.16
2022-09-28T15:13:05.425Z,97893.13
2022-09-28T15:15:39.060Z,97888.78
2022-09-28T15:18:34.208Z,97898.50
2022-09-28T15:21:06.975Z,97909.22
2022-09-28T15:23:37.059Z,97908.13
2022-09-28T15:26:07.241Z,97907.56
2022-09-28T15:28:44.303Z,97909.75
2022-09-28T15:31:18.010Z,97921.53
2022-09-28T15:34:05.822Z,97917.16
2022-09-28T15:36:38.038Z,97925.53
2022-09-28T15:39:35.768Z,97926.31
2022-09-28T15:42:09.157Z,97917.94
2022-09-28T15:44:37.697Z,97925.75
2022-09-28T15:47:26.442Z,97924.69
2022-09-28T15:50:00.359Z,97922.00
2022-09-28T15:52:41.006Z,97923.09
2022-09-28T15:55:29.332Z,97919.34
2022-09-28T15:58:26.489Z,97912.34
2022-09-28T16:01:23.147Z,97919.34
2022-09-28T16:03:52.352Z,97917.97
2022-09-28T16:06:19.862Z,97921.47
2022-09-28T16:09:30.273Z,97921.78
2022-09-28T16:11:57.160Z,97919.34
2022-09-28T16:14:26.336Z,97916.91
2022-09-28T16:16:59.904Z,97919.06
2022-09-28T16:19:37.566Z,97922.53
2022-09-28T16:22:08.130Z,97926.81
2022-09-28T16:24:39.339Z,97921.69
2022-09-28T16:27:09.080Z,97914.69
2022-09-28T16:29:42.954Z,97925.19
2022-09-28T16:32:25.470Z,97928.41
2022-09-28T16:35:28.138Z,97925.16
2022-09-28T16:38:14.544Z,97921.34
2022-09-28T16:40:48.111Z,97920.78
2022-09-28T16:43:26.991Z,97920.78
2022-09-28T16:46:00.050Z,97917.28
2022-09-28T16:48:31.802Z,97930.44
2022-09-28T16:50:59.583Z,97935.28
2022-09-28T16:53:46.061Z,97937.97
2022-09-28T16:56:13.683Z,97939.88
2022-09-28T16:58:42.619Z,97945.25
2022-09-28T17:01:12.081Z,97941.19
2022-09-28T17:03:44.345Z,97946.00
2022-09-28T17:06:12.406Z,97943.88
2022-09-28T17:08:46.918Z,97942.78
2022-09-28T17:11:21.491Z,97943.31
2022-09-28T17:14:00.971Z,97951.88
2022-09-28T17:17:06.274Z,97948.94
2022-09-28T17:19:28.804Z,97951.06
2022-09-28T17:21:56.103Z,97956.19
2022-09-28T17:24:23.232Z,97951.06
2022-09-28T17:26:51.537Z,97949.19
2022-09-28T17:29:44.266Z,97955.44
2022-09-28T17:32:17.783Z,97955.38
2022-09-28T17:34:51.515Z,97963.72
2022-09-28T17:37:23.241Z,97960.75
2022-09-28T17:42:32.278Z,97956.59
2022-09-28T17:45:03.593Z,97965.28
2022-09-28T17:47:34.329Z,97970.09
2022-09-28T17:50:35.449Z,97955.16
2022-09-28T17:53:22.739Z,97967.28
2022-09-28T17:55:51.858Z,97963.97
2022-09-28T17:58:22.979Z,97972.59
2022-09-28T18:00:51.520Z,97969.34
2022-09-28T18:03:23.098Z,97973.41
2022-09-28T18:05:58.407Z,97971.53
2022-09-28T18:08:25.533Z,97965.00
2022-09-28T18:10:52.694Z,97968.78
2022-09-28T18:13:20.318Z,97972.56
2022-09-28T18:15:53.139Z,97965.53
2022-09-28T18:18:20.939Z,97960.09
2022-09-28T18:20:47.833Z,97961.69
2022-09-28T18:23:15.651Z,97964.94
2022-09-28T18:25:44.559Z,97964.44
2022-09-28T18:28:12.736Z,97955.53
2022-09-28T18:30:45.010Z,97948.25
2022-09-28T18:33:13.361Z,97948.25
2022-09-28T18:35:40.613Z,97933.66
2022-09-28T18:38:08.306Z,97938.50
2022-09-28T18:40:36.194Z,97946.00
2022-09-28T18:43:03.844Z,97946.38
2022-09-28T18:45:31.303Z,97933.88
2022-09-28T18:48:01.197Z,97940.38
2022-09-28T18:50:28.224Z,97944.38
2022-09-28T18:52:55.264Z,97931.66
2022-09-28T18:55:22.434Z,97961.63
2022-09-28T18:57:49.931Z,97947.59
2022-09-28T19:00:17.498Z,97953.00
2022-09-28T19:02:45.969Z,97963.19
2022-09-28T19:05:14.388Z,97960.31
2022-09-28T19:07:44.141Z,97956.25
2022-09-28T19:10:11.464Z,97944.72
2022-09-28T19:12:39.272Z,97957.13
2022-09-28T19:15:06.968Z,97953.06
2022-09-28T19:17:34.075Z,97957.94
2022-09-28T19:20:01.372Z,97963.56
2022-09-28T19:22:29.055Z,97973.00
2022-09-28T19:24:56.261Z,97967.56
2022-09-28T19:27:23.716Z,97979.34
2022-09-28T19:29:51.615Z,97971.88
2022-09-28T19:32:24.778Z,97970.25
2022-09-28T19:34:52.016Z,97978.03
2022-09-28T19:37:19.019Z,97978.72
2022-09-28T19:39:46.144Z,97981.19
2022-09-28T19:42:13.336Z,97990.28
2022-09-28T19:44:40.557Z,97992.16
2022-09-28T19:47:09.047Z,97991.59
2022-09-28T19:49:39.634Z,97990.78
2022-09-28T19:52:15.149Z,97993.22
2022-09-28T19:54:48.568Z,97990.28
2022-09-28T19:57:16.310Z,97992.66
2022-09-28T19:59:43.896Z,97994.53
2022-09-28T20:02:11.715Z,97994.03
2022-09-28T20:04:39.000Z,97994.84
2022-09-28T20:07:06.075Z,97994.84
2022-09-28T20:09:33.458Z,98007.16
2022-09-28T20:12:00.825Z,98001.22
2022-09-28T20:14:32.866Z,98001.72
2022-09-28T20:17:03.684Z,98004.06
2022-09-28T20:19:30.960Z,98007.56
2022-09-28T20:22:04.394Z,98012.47
2022-09-28T20:24:32.808Z,98015.38
2022-09-28T20:27:01.543Z,98016.69
2022-09-28T20:29:31.797Z,98024.97
2022-09-28T20:31:59.406Z,98033.31
2022-09-28T20:34:26.552Z,98033.53
2022-09-28T20:36:53.603Z,98040.28
2022-09-28T20:39:20.952Z,98048.28
2022-09-28T20:41:49.309Z,98054.72
2022-09-28T20:44:16.466Z,98048.53
2022-09-28T20:46:44.376Z,98045.84
2022-09-28T20:49:11.698Z,98048.78
2022-09-28T20:51:38.563Z,98050.16
2022-09-28T20:54:05.801Z,98053.41
2022-09-28T20:56:37.933Z,98052.09
2022-09-28T20:59:10.439Z,98044.84
2022-09-28T21:01:37.985Z,98049.16
2022-09-28T21:04:07.110Z,98050.22
2022-09-28T21:06:39.871Z,98050.22
2022-09-28T21:09:07.881Z,98055.00
2022-09-28T21:11:35.828Z,98053.41
2022-09-28T21:14:06.353Z,98061.19
2022-09-28T21:16:37.106Z,98051.03
2022-09-28T21:19:04.630Z,98059.06
2022-09-28T21:21:32.154Z,98063.06
2022-09-28T21:23:59.609Z,98059.81
2022-09-28T21:26:28.592Z,98066.81
2022-09-28T21:28:58.093Z,98058.78
2022-09-28T21:31:29.159Z,98056.41
2022-09-28T21:33:58.645Z,98066.56
2022-09-28T21:36:26.324Z,98066.56
2022-09-28T21:38:55.245Z,98065.69
2022-09-28T21:41:23.231Z,98068.94
2022-09-28T21:43:50.480Z,98068.69
2022-09-28T21:46:17.916Z,98063.88
2022-09-28T21:48:45.155Z,98076.25
2022-09-28T21:51:15.589Z,98069.75
2022-09-28T21:53:42.886Z,98068.94
2022-09-28T21:56:11.382Z,98073.22
2022-09-28T21:58:38.881Z,98071.94
2022-09-28T22:01:08.818Z,98071.13
2022-09-28T22:03:36.580Z,98080.47
2022-09-28T22:06:04.575Z,98078.88
2022-09-28T22:08:31.981Z,98073.50
2022-09-28T22:11:03.577Z,98072.34
2022-09-28T22:13:33.761Z,98078.53
2022-09-28T22:16:00.868Z,98076.91
2022-09-28T22:18:29.124Z,98079.38
2022-09-28T22:21:07.557Z,98074.81
2022-09-28T22:23:37.080Z,98081.56
2022-09-28T22:26:11.613Z,98087.50
2022-09-28T22:28:39.813Z,98084.31
2022-09-28T22:31:06.814Z,98081.84
2022-09-28T22:33:34.256Z,98084.31
2022-09-28T22:36:01.477Z,98075.13
2022-09-28T22:38:31.971Z,98077.28
2022-09-28T22:40:58.959Z,98077.56
2022-09-28T22:43:27.187Z,98081.84
2022-09-28T22:46:08.925Z,98085.34
2022-09-28T22:48:36.225Z,98084.81
2022-09-28T22:51:04.321Z,98082.94
2022-09-28T22:53:31.299Z,98082.13
2022-09-28T22:55:59.388Z,98086.66
2022-09-28T22:58:26.594Z,98077.22
2022-09-28T23:00:54.103Z,98082.28
2022-09-28T23:03:21.959Z,98078.28
2022-09-28T23:05:54.049Z,98078.78
2022-09-28T23:08:47.416Z,98090.66
2022-09-28T23:11:15.369Z,98090.56
2022-09-28T23:13:42.954Z,98080.91
2022-09-28T23:16:14.906Z,98078.53
2022-09-28T23:18:48.991Z,98087.41
2022-09-28T23:21:18.218Z,98086.03
2022-09-28T23:23:46.111Z,98087.16
2022-09-28T23:26:18.127Z,98089.59
2022-09-28T23:28:45.419Z,98087.50
2022-09-28T23:31:18.655Z,98095.28
2022-09-28T23:33:46.255Z,98096.09
2022-09-28T23:36:13.654Z,98095.84
2022-09-28T23:38:40.658Z,98089.34
2022-09-28T23:41:08.182Z,98095.28
2022-09-28T23:43:36.278Z,98098.78
2022-09-28T23:46:04.371Z,98089.69
2022-09-28T23:48:31.393Z,98103.91
2022-09-28T23:50:58.545Z,98104.72
2022-09-28T23:53:25.654Z,98093.41
2022-09-28T23:55:54.341Z,98097.16
2022-09-28T23:58:21.379Z,98103.59
